Time;durP1;ratioP1;P1;durP2;ratioP2;P2;SDS_P1;SDS_P2;PMS_P1;PMS_P2;Temp;Humidity;BMP_temperature;BMP_pressure;BME280_temperature;BME280_humidity;BME280_pressure;Samples;Min_cycle;Max_cycle;Signal;HPM_P1;HPM_P2
2023/03/21 00:00:33;;;;;;;16.97;11.93;;;;;;;;;;4994573;28;20437;-67
2023/03/21 00:03:00;;;;;;;21.13;10.53;;;;;;;;;;4994398;28;20489;-66
2023/03/21 00:05:28;;;;;;;20.30;11.60;;;;;;;;;;4994917;28;20460;-66
2023/03/21 00:07:55;;;;;;;18.40;11.40;;;;;;;;;;4995577;28;20810;-66
2023/03/21 00:10:23;;;;;;;20.43;11.57;;;;;;;;;;4995521;28;20440;-66
2023/03/21 00:12:57;;;;;;;19.03;11.47;;;;;;;;;;4994763;28;20451;-66
2023/03/21 00:15:26;;;;;;;19.93;12.00;;;;;;;;;;4995042;28;20431;-66
2023/03/21 00:18:03;;;;;;;20.93;12.33;;;;;;;;;;4994928;28;20455;-67
2023/03/21 00:20:33;;;;;;;20.10;12.80;;;;;;;;;;4995272;28;20438;-66
2023/03/21 00:23:00;;;;;;;20.73;12.40;;;;;;;;;;4995013;28;20488;-66
2023/03/21 00:25:27;;;;;;;24.27;12.83;;;;;;;;;;4994433;28;20453;-67
2023/03/21 00:27:54;;;;;;;25.03;13.30;;;;;;;;;;4993888;28;20445;-66
2023/03/21 00:30:22;;;;;;;19.67;12.20;;;;;;;;;;4994144;28;20448;-66
2023/03/21 00:32:51;;;;;;;24.57;14.43;;;;;;;;;;4994865;28;20449;-66
2023/03/21 00:35:18;;;;;;;19.30;14.03;;;;;;;;;;4994105;28;20518;-66
2023/03/21 00:37:46;;;;;;;25.73;14.00;;;;;;;;;;4994372;28;20965;-66
2023/03/21 00:40:13;;;;;;;25.13;14.37;;;;;;;;;;4994515;28;20782;-66
2023/03/21 00:42:40;;;;;;;27.40;16.27;;;;;;;;;;4994503;28;20449;-67
2023/03/21 00:45:09;;;;;;;22.63;15.05;;;;;;;;;;4994441;28;20449;-67
2023/03/21 00:47:36;;;;;;;20.83;14.20;;;;;;;;;;4994426;28;20204;-67
2023/03/21 00:50:06;;;;;;;25.90;15.77;;;;;;;;;;4994771;28;20935;-66
2023/03/21 00:52:33;;;;;;;25.03;16.00;;;;;;;;;;4994410;28;20536;-67
2023/03/21 00:55:01;;;;;;;24.67;15.27;;;;;;;;;;4994704;28;20498;-66
2023/03/21 00:57:28;;;;;;;20.63;15.40;;;;;;;;;;4994278;28;20507;-66
2023/03/21 00:59:56;;;;;;;38.13;14.30;;;;;;;;;;4994305;28;20458;-66
2023/03/21 01:02:25;;;;;;;27.03;15.23;;;;;;;;;;4995040;28;20464;-67
2023/03/21 01:04:53;;;;;;;28.47;14.50;;;;;;;;;;4993961;28;20488;-67
2023/03/21 01:07:23;;;;;;;24.07;15.53;;;;;;;;;;4994139;28;20809;-66
2023/03/21 01:09:50;;;;;;;20.07;14.50;;;;;;;;;;4995237;28;20471;-66
2023/03/21 01:12:18;;;;;;;24.83;16.47;;;;;;;;;;4994162;28;20462;-66
2023/03/21 01:14:45;;;;;;;21.57;15.50;;;;;;;;;;4993823;28;20444;-67
2023/03/21 01:17:12;;;;;;;24.67;15.10;;;;;;;;;;4993745;28;20451;-67
2023/03/21 01:19:39;;;;;;;27.50;15.50;;;;;;;;;;4994006;28;20436;-66
2023/03/21 01:22:07;;;;;;;28.40;16.73;;;;;;;;;;4993962;28;20463;-66
2023/03/21 01:24:36;;;;;;;30.13;16.60;;;;;;;;;;4993732;28;20956;-66
2023/03/21 01:27:03;;;;;;;28.40;16.80;;;;;;;;;;4994104;28;20451;-66
2023/03/21 01:29:30;;;;;;;32.40;16.50;;;;;;;;;;4993693;28;20932;-66
2023/03/21 01:31:57;;;;;;;28.07;17.33;;;;;;;;;;4993937;28;20524;-66
2023/03/21 01:34:25;;;;;;;26.67;16.87;;;;;;;;;;4993358;28;20448;-67
2023/03/21 01:36:52;;;;;;;26.67;17.17;;;;;;;;;;4994282;28;20862;-66
2023/03/21 01:39:19;;;;;;;27.00;17.77;;;;;;;;;;4994325;28;20456;-66
2023/03/21 01:41:48;;;;;;;32.17;18.90;;;;;;;;;;4997793;28;20440;-66
2023/03/21 01:44:16;;;;;;;37.00;21.53;;;;;;;;;;4997408;28;20485;-67
2023/03/21 01:46:45;;;;;;;29.70;19.23;;;;;;;;;;4997751;28;20472;-66
2023/03/21 01:49:15;;;;;;;28.67;20.20;;;;;;;;;;4997435;28;20448;-66
2023/03/21 01:51:45;;;;;;;33.20;20.30;;;;;;;;;;4997301;28;20456;-67
2023/03/21 01:54:15;;;;;;;31.63;19.00;;;;;;;;;;4998113;28;20454;-66
2023/03/21 01:56:45;;;;;;;41.10;21.30;;;;;;;;;;4997730;28;20430;-67
2023/03/21 01:59:20;;;;;;;37.80;19.40;;;;;;;;;;4997372;28;20486;-66
2023/03/21 02:01:48;;;;;;;35.70;20.60;;;;;;;;;;4998987;28;20463;-67
2023/03/21 02:04:15;;;;;;;47.43;23.50;;;;;;;;;;4997445;28;20480;-66
2023/03/21 02:06:45;;;;;;;38.47;21.17;;;;;;;;;;4997092;28;20447;-66
2023/03/21 02:09:14;;;;;;;35.93;21.10;;;;;;;;;;4999135;28;20451;-66
2023/03/21 02:11:45;;;;;;;37.37;21.87;;;;;;;;;;4997229;28;20523;-66
2023/03/21 02:14:13;;;;;;;36.23;20.53;;;;;;;;;;4997113;28;20433;-66
2023/03/21 02:16:46;;;;;;;34.07;21.17;;;;;;;;;;4997133;28;20526;-66
2023/03/21 02:19:29;;;;;;;37.83;22.10;;;;;;;;;;4997737;28;20452;-66
2023/03/21 02:22:06;;;;;;;40.73;23.47;;;;;;;;;;4996829;28;20447;-66
2023/03/21 02:24:45;;;;;;;34.80;22.33;;;;;;;;;;4996310;28;20464;-66
2023/03/21 02:27:14;;;;;;;37.90;22.40;;;;;;;;;;4996857;28;20917;-66
2023/03/21 02:29:57;;;;;;;35.00;22.20;;;;;;;;;;4996570;28;20786;-68
2023/03/21 02:32:31;;;;;;;38.73;22.13;;;;;;;;;;4996531;28;20965;-67
2023/03/21 02:35:05;;;;;;;43.60;23.20;;;;;;;;;;4996273;28;20481;-67
2023/03/21 02:37:36;;;;;;;32.87;21.30;;;;;;;;;;4996389;28;20934;-67
2023/03/21 02:40:08;;;;;;;32.00;21.10;;;;;;;;;;4996935;28;20444;-66
2023/03/21 02:42:39;;;;;;;32.33;20.67;;;;;;;;;;4996917;28;20616;-66
2023/03/21 02:45:10;;;;;;;33.23;21.93;;;;;;;;;;4996325;28;20468;-66
2023/03/21 02:47:40;;;;;;;44.60;21.33;;;;;;;;;;4996752;28;20855;-66
2023/03/21 02:50:11;;;;;;;39.57;20.90;;;;;;;;;;4997267;28;20433;-66
2023/03/21 02:52:40;;;;;;;33.97;21.97;;;;;;;;;;4995645;28;20448;-66
2023/03/21 02:55:12;;;;;;;31.50;18.83;;;;;;;;;;4996497;28;20496;-67
2023/03/21 02:57:40;;;;;;;33.83;19.20;;;;;;;;;;4996761;28;20504;-66
2023/03/21 03:00:11;;;;;;;38.40;21.33;;;;;;;;;;4996865;28;20455;-67
2023/03/21 03:02:38;;;;;;;38.30;21.00;;;;;;;;;;4997742;28;20873;-67
2023/03/21 03:05:13;;;;;;;33.87;20.30;;;;;;;;;;4996000;28;20546;-66
2023/03/21 03:07:48;;;;;;;32.27;20.80;;;;;;;;;;4996501;28;20465;-67
2023/03/21 03:10:21;;;;;;;31.10;20.40;;;;;;;;;;4997065;28;20442;-67
2023/03/21 03:12:54;;;;;;;39.37;21.80;;;;;;;;;;4996349;28;20437;-67
2023/03/21 03:15:27;;;;;;;35.20;21.20;;;;;;;;;;4996584;28;20440;-67
2023/03/21 03:18:01;;;;;;;41.67;20.20;;;;;;;;;;4995738;28;20519;-66
2023/03/21 03:20:37;;;;;;;38.40;21.23;;;;;;;;;;4996299;28;20457;-66
2023/03/21 03:23:11;;;;;;;28.33;20.10;;;;;;;;;;4995933;28;20428;-66
2023/03/21 03:25:40;;;;;;;33.80;20.50;;;;;;;;;;4995962;28;20994;-66
2023/03/21 03:28:08;;;;;;;37.47;20.15;;;;;;;;;;4995504;28;20444;-66
2023/03/21 03:30:37;;;;;;;32.20;21.50;;;;;;;;;;4995550;28;20244;-67
2023/03/21 03:33:05;;;;;;;27.70;20.23;;;;;;;;;;4995990;28;20440;-66
2023/03/21 03:35:33;;;;;;;35.43;19.03;;;;;;;;;;4995579;28;20996;-66
2023/03/21 03:38:02;;;;;;;28.70;19.70;;;;;;;;;;4995320;28;20453;-66
2023/03/21 03:40:32;;;;;;;43.50;21.03;;;;;;;;;;4995610;28;20437;-67
2023/03/21 03:43:02;;;;;;;35.80;21.63;;;;;;;;;;4995249;28;20449;-67
2023/03/21 03:45:30;;;;;;;32.93;19.37;;;;;;;;;;4995193;28;20977;-66
2023/03/21 03:48:02;;;;;;;33.63;20.13;;;;;;;;;;4995106;28;20449;-66
2023/03/21 03:50:31;;;;;;;40.13;19.63;;;;;;;;;;4995445;28;20436;-67
2023/03/21 03:53:02;;;;;;;32.80;18.93;;;;;;;;;;4995531;28;20801;-66
2023/03/21 03:55:33;;;;;;;31.87;18.20;;;;;;;;;;4995956;28;20511;-66
2023/03/21 03:58:01;;;;;;;30.10;18.73;;;;;;;;;;4995710;28;20488;-66
2023/03/21 04:00:28;;;;;;;38.60;19.27;;;;;;;;;;4995020;28;20962;-67
2023/03/21 04:02:57;;;;;;;30.57;19.00;;;;;;;;;;4996803;28;20849;-67
2023/03/21 04:05:25;;;;;;;30.90;19.27;;;;;;;;;;4995272;28;20498;-66
2023/03/21 04:07:52;;;;;;;29.80;18.50;;;;;;;;;;4994848;28;20465;-67
2023/03/21 04:10:21;;;;;;;32.53;18.67;;;;;;;;;;4995733;28;20460;-66
2023/03/21 04:12:50;;;;;;;32.37;18.87;;;;;;;;;;4995196;28;20468;-67
2023/03/21 04:15:17;;;;;;;33.57;18.30;;;;;;;;;;4995027;28;20833;-67
2023/03/21 04:17:46;;;;;;;35.70;19.77;;;;;;;;;;4995342;28;20440;-67
2023/03/21 04:20:13;;;;;;;34.00;18.47;;;;;;;;;;4994737;28;20450;-67
2023/03/21 04:22:40;;;;;;;29.57;18.03;;;;;;;;;;4994545;28;20448;-66
2023/03/21 04:25:08;;;;;;;41.57;21.87;;;;;;;;;;4994713;28;20812;-67
2023/03/21 04:27:35;;;;;;;26.53;16.97;;;;;;;;;;4994446;28;20973;-66
2023/03/21 04:30:05;;;;;;;33.67;17.23;;;;;;;;;;4994689;28;20466;-67
2023/03/21 04:32:38;;;;;;;24.23;15.33;;;;;;;;;;4994732;28;20850;-66
2023/03/21 04:35:05;;;;;;;24.50;16.90;;;;;;;;;;4994342;28;20485;-67
2023/03/21 04:37:33;;;;;;;26.10;17.20;;;;;;;;;;4994663;28;20452;-67
2023/03/21 04:40:02;;;;;;;31.33;17.83;;;;;;;;;;4994231;28;20456;-66
2023/03/21 04:42:32;;;;;;;28.30;16.80;;;;;;;;;;4994371;28;20428;-66
2023/03/21 04:44:59;;;;;;;26.83;15.17;;;;;;;;;;4994424;28;20491;-66
2023/03/21 04:47:28;;;;;;;30.27;15.87;;;;;;;;;;4994503;28;20455;-66
2023/03/21 04:49:55;;;;;;;30.52;16.83;;;;;;;;;;4993968;28;20457;-66
2023/03/21 04:52:22;;;;;;;35.37;16.53;;;;;;;;;;4994335;28;20197;-66
2023/03/21 04:54:50;;;;;;;29.20;16.20;;;;;;;;;;4994258;28;20456;-66
2023/03/21 04:57:17;;;;;;;25.23;17.20;;;;;;;;;;4994009;28;20445;-66
2023/03/21 04:59:44;;;;;;;27.20;15.50;;;;;;;;;;4994299;28;20540;-67
2023/03/21 05:02:11;;;;;;;27.37;16.40;;;;;;;;;;5013443;28;20526;-65
2023/03/21 05:04:40;;;;;;;27.80;17.20;;;;;;;;;;5013079;28;20491;-66
2023/03/21 05:07:07;;;;;;;25.67;16.03;;;;;;;;;;5013520;28;20456;-66
2023/03/21 05:09:35;;;;;;;30.20;16.27;;;;;;;;;;5013682;28;20806;-66
2023/03/21 05:12:02;;;;;;;35.27;18.40;;;;;;;;;;5013602;28;20447;-66
2023/03/21 05:14:30;;;;;;;26.53;17.37;;;;;;;;;;5013382;28;20452;-66
2023/03/21 05:16:57;;;;;;;28.77;18.43;;;;;;;;;;5013749;28;20436;-67
2023/03/21 05:19:33;;;;;;;33.83;18.17;;;;;;;;;;5013228;28;20443;-71
2023/03/21 05:22:03;;;;;;;23.60;15.40;;;;;;;;;;5013542;28;20526;-71
2023/03/21 05:24:31;;;;;;;26.97;16.40;;;;;;;;;;5013149;28;20479;-66
2023/03/21 05:27:01;;;;;;;27.53;15.60;;;;;;;;;;5013552;28;20442;-66
2023/03/21 05:29:29;;;;;;;27.20;15.47;;;;;;;;;;5013769;28;20831;-66
2023/03/21 05:31:56;;;;;;;31.17;16.70;;;;;;;;;;5012995;28;21008;-65
2023/03/21 05:34:23;;;;;;;27.83;16.90;;;;;;;;;;5013200;28;20918;-66
2023/03/21 05:36:50;;;;;;;20.10;15.77;;;;;;;;;;5013307;28;20430;-66
2023/03/21 05:39:19;;;;;;;34.33;17.10;;;;;;;;;;5013357;28;20443;-66
2023/03/21 05:41:46;;;;;;;29.03;16.20;;;;;;;;;;5013338;28;20445;-66
2023/03/21 05:44:14;;;;;;;25.67;16.30;;;;;;;;;;5013272;28;20447;-66
2023/03/21 05:46:42;;;;;;;24.97;15.60;;;;;;;;;;5013468;28;20462;-66
2023/03/21 05:49:10;;;;;;;28.93;15.63;;;;;;;;;;5013234;28;20439;-66
2023/03/21 05:51:37;;;;;;;25.10;15.50;;;;;;;;;;5013055;28;21050;-66
2023/03/21 05:54:05;;;;;;;26.80;14.77;;;;;;;;;;5013232;28;20534;-66
2023/03/21 05:56:33;;;;;;;38.20;17.90;;;;;;;;;;5013259;28;20439;-66
2023/03/21 05:59:01;;;;;;;32.90;15.97;;;;;;;;;;5013266;28;20443;-66
2023/03/21 06:01:28;;;;;;;31.63;16.33;;;;;;;;;;5012604;28;20459;-67
2023/03/21 06:03:55;;;;;;;23.00;15.60;;;;;;;;;;5013586;28;20805;-66
2023/03/21 06:06:22;;;;;;;24.40;15.40;;;;;;;;;;5013311;28;20488;-66
2023/03/21 06:08:49;;;;;;;25.10;16.03;;;;;;;;;;5013283;28;20445;-66
2023/03/21 06:11:21;;;;;;;30.00;16.80;;;;;;;;;;5013262;28;20834;-66
2023/03/21 06:13:49;;;;;;;28.97;15.47;;;;;;;;;;5013614;28;20471;-66
2023/03/21 06:16:17;;;;;;;24.13;15.63;;;;;;;;;;5013181;28;20448;-66
2023/03/21 06:18:44;;;;;;;27.97;16.00;;;;;;;;;;5012939;28;20536;-66
2023/03/21 06:21:11;;;;;;;28.83;15.40;;;;;;;;;;5012822;28;20443;-66
2023/03/21 06:23:38;;;;;;;27.97;15.17;;;;;;;;;;5012764;28;20946;-66
2023/03/21 06:26:06;;;;;;;20.30;13.20;;;;;;;;;;5012693;28;20944;-66
2023/03/21 06:28:33;;;;;;;25.97;15.77;;;;;;;;;;5016632;28;20451;-66
2023/03/21 06:31:02;;;;;;;27.87;16.43;;;;;;;;;;5016247;28;20799;-66
2023/03/21 06:33:29;;;;;;;31.13;14.73;;;;;;;;;;5016449;28;20439;-66
2023/03/21 06:35:57;;;;;;;27.73;15.37;;;;;;;;;;5015928;28;20475;-66
2023/03/21 06:38:24;;;;;;;26.90;15.00;;;;;;;;;;5016614;28;20450;-66
2023/03/21 06:40:52;;;;;;;23.23;15.83;;;;;;;;;;5016029;28;20479;-66
2023/03/21 06:43:19;;;;;;;28.00;15.50;;;;;;;;;;5017094;28;20442;-67
2023/03/21 06:45:46;;;;;;;23.83;14.83;;;;;;;;;;5015804;28;20522;-66
2023/03/21 06:48:15;;;;;;;23.20;15.30;;;;;;;;;;5015942;28;20937;-66
2023/03/21 06:50:42;;;;;;;26.73;15.70;;;;;;;;;;5015749;28;20439;-68
2023/03/21 06:53:09;;;;;;;27.30;16.57;;;;;;;;;;5015792;28;20451;-66
2023/03/21 06:55:36;;;;;;;28.03;17.40;;;;;;;;;;5015735;28;20456;-66
2023/03/21 06:58:04;;;;;;;31.27;15.83;;;;;;;;;;5016601;28;20444;-66
2023/03/21 07:00:31;;;;;;;28.03;15.03;;;;;;;;;;5015651;28;20449;-66
2023/03/21 07:03:00;;;;;;;24.20;15.90;;;;;;;;;;5016074;28;20446;-66
2023/03/21 07:05:28;;;;;;;31.60;16.47;;;;;;;;;;5015434;28;20518;-66
2023/03/21 07:07:55;;;;;;;27.20;14.77;;;;;;;;;;5015570;28;20447;-66
2023/03/21 07:10:23;;;;;;;24.20;15.90;;;;;;;;;;5015426;28;20447;-66
2023/03/21 07:12:50;;;;;;;29.47;17.60;;;;;;;;;;5015688;28;20451;-66
2023/03/21 07:15:17;;;;;;;37.83;17.80;;;;;;;;;;5015452;28;20955;-66
2023/03/21 07:17:44;;;;;;;27.67;15.03;;;;;;;;;;5015724;28;20453;-66
2023/03/21 07:20:12;;;;;;;29.60;16.53;;;;;;;;;;5015668;28;20439;-66
2023/03/21 07:22:41;;;;;;;31.03;16.93;;;;;;;;;;5015941;28;20500;-66
2023/03/21 07:25:09;;;;;;;29.40;16.60;;;;;;;;;;5015386;28;20509;-66
2023/03/21 07:27:36;;;;;;;27.53;15.40;;;;;;;;;;5015627;28;20542;-66
2023/03/21 07:30:03;;;;;;;22.73;16.70;;;;;;;;;;5015459;28;20443;-67
2023/03/21 07:32:33;;;;;;;30.30;14.83;;;;;;;;;;5014957;28;20436;-66
2023/03/21 07:35:00;;;;;;;26.43;15.00;;;;;;;;;;5015008;28;20479;-66
2023/03/21 07:37:27;;;;;;;29.33;15.63;;;;;;;;;;5015254;28;20467;-66
2023/03/21 07:39:56;;;;;;;32.63;16.33;;;;;;;;;;5015115;28;20446;-66
2023/03/21 07:42:23;;;;;;;22.40;14.73;;;;;;;;;;5015259;28;20448;-66
2023/03/21 07:44:51;;;;;;;18.87;13.83;;;;;;;;;;5015338;28;20536;-66
2023/03/21 07:47:18;;;;;;;20.43;14.23;;;;;;;;;;5014813;28;20456;-66
2023/03/21 07:49:46;;;;;;;28.27;14.53;;;;;;;;;;5015336;28;20963;-66
2023/03/21 07:52:13;;;;;;;28.87;14.80;;;;;;;;;;5014979;28;20443;-66
2023/03/21 07:54:40;;;;;;;26.80;15.67;;;;;;;;;;5014574;28;20531;-67
2023/03/21 07:57:09;;;;;;;27.70;14.33;;;;;;;;;;5014923;28;20451;-66
2023/03/21 07:59:36;;;;;;;24.50;15.47;;;;;;;;;;5014924;28;20801;-67
2023/03/21 08:02:03;;;;;;;27.70;14.80;;;;;;;;;;5014882;28;20529;-67
2023/03/21 08:04:31;;;;;;;26.57;16.50;;;;;;;;;;5015181;28;20450;-67
2023/03/21 08:06:58;;;;;;;25.27;14.97;;;;;;;;;;5014476;28;20490;-67
2023/03/21 08:09:26;;;;;;;28.50;17.80;;;;;;;;;;5015131;28;20513;-67
2023/03/21 08:11:53;;;;;;;31.07;16.33;;;;;;;;;;5014477;28;20808;-67
2023/03/21 08:14:21;;;;;;;29.83;15.63;;;;;;;;;;5014549;28;20800;-67
2023/03/21 08:16:48;;;;;;;30.73;16.70;;;;;;;;;;5014565;28;20454;-67
2023/03/21 08:19:17;;;;;;;28.30;15.63;;;;;;;;;;5014283;28;20478;-67
2023/03/21 08:21:44;;;;;;;29.10;16.67;;;;;;;;;;5014628;28;20447;-67
2023/03/21 08:24:12;;;;;;;25.73;15.57;;;;;;;;;;5014134;28;20482;-67
2023/03/21 08:26:39;;;;;;;29.83;16.63;;;;;;;;;;5013898;28;21013;-67
2023/03/21 08:29:06;;;;;;;30.90;15.33;;;;;;;;;;5014184;28;20440;-67
2023/03/21 08:31:35;;;;;;;28.93;15.97;;;;;;;;;;5014828;28;20510;-67
2023/03/21 08:34:02;;;;;;;28.57;15.30;;;;;;;;;;5014204;28;20445;-67
2023/03/21 08:36:30;;;;;;;27.93;15.67;;;;;;;;;;5014204;28;20572;-67
2023/03/21 08:39:04;;;;;;;27.53;16.50;;;;;;;;;;5014002;28;20448;-67
2023/03/21 08:41:31;;;;;;;31.20;16.07;;;;;;;;;;5014539;28;20487;-67
2023/03/21 08:43:58;;;;;;;23.43;15.43;;;;;;;;;;5014951;28;20825;-67
2023/03/21 08:46:25;;;;;;;27.33;15.00;;;;;;;;;;5013629;28;20973;-67
2023/03/21 08:48:54;;;;;;;28.67;14.03;;;;;;;;;;5013366;28;20926;-66
2023/03/21 08:51:21;;;;;;;27.10;15.03;;;;;;;;;;5013590;28;20443;-67
2023/03/21 08:53:49;;;;;;;25.10;15.33;;;;;;;;;;5013558;28;20454;-67
2023/03/21 08:56:17;;;;;;;22.10;13.77;;;;;;;;;;5013557;28;20451;-67
2023/03/21 08:58:44;;;;;;;32.90;15.90;;;;;;;;;;5013831;28;20802;-66
2023/03/21 09:01:14;;;;;;;26.40;14.57;;;;;;;;;;5013114;28;20455;-67
2023/03/21 09:03:41;;;;;;;20.50;12.70;;;;;;;;;;5013752;28;20439;-67
2023/03/21 09:06:13;;;;;;;23.57;13.00;;;;;;;;;;5013439;28;20484;-67
2023/03/21 09:08:40;;;;;;;29.50;13.87;;;;;;;;;;5013682;28;20824;-67
2023/03/21 09:11:08;;;;;;;31.20;12.77;;;;;;;;;;5013428;28;20531;-67
2023/03/21 09:13:35;;;;;;;24.90;12.90;;;;;;;;;;5013650;28;20460;-67
2023/03/21 09:16:03;;;;;;;18.30;12.67;;;;;;;;;;5013403;28;20540;-67
2023/03/21 09:18:45;;;;;;;23.57;13.77;;;;;;;;;;5013908;28;20456;-67
2023/03/21 09:21:15;;;;;;;26.50;13.33;;;;;;;;;;5013957;28;20463;-67
2023/03/21 09:23:43;;;;;;;20.73;13.13;;;;;;;;;;5013775;28;20443;-67
2023/03/21 09:26:11;;;;;;;23.73;13.50;;;;;;;;;;5013286;28;20475;-67
2023/03/21 09:28:39;;;;;;;18.87;13.10;;;;;;;;;;5013538;28;20538;-67
2023/03/21 09:31:07;;;;;;;24.70;14.27;;;;;;;;;;5013227;28;20502;-67
2023/03/21 09:33:35;;;;;;;23.23;13.47;;;;;;;;;;5013479;28;20455;-67
2023/03/21 09:36:08;;;;;;;27.53;13.40;;;;;;;;;;5013138;28;20477;-67
2023/03/21 09:38:39;;;;;;;28.13;15.07;;;;;;;;;;5013427;28;20440;-67
2023/03/21 09:41:12;;;;;;;18.70;12.23;;;;;;;;;;5013732;28;20609;-67
2023/03/21 09:43:42;;;;;;;24.13;12.63;;;;;;;;;;5013441;28;20436;-67
2023/03/21 09:46:14;;;;;;;25.10;12.37;;;;;;;;;;5014114;28;20477;-67
2023/03/21 09:48:46;;;;;;;15.77;11.80;;;;;;;;;;5013397;28;20431;-67
2023/03/21 09:51:16;;;;;;;18.10;13.10;;;;;;;;;;5013502;28;20912;-67
2023/03/21 09:53:47;;;;;;;19.83;11.77;;;;;;;;;;5013191;28;20446;-67
2023/03/21 09:56:16;;;;;;;22.00;11.67;;;;;;;;;;5013601;28;20486;-67
2023/03/21 09:58:45;;;;;;;21.07;12.43;;;;;;;;;;5013223;28;20475;-67
2023/03/21 10:01:20;;;;;;;18.40;11.60;;;;;;;;;;5015164;28;20531;-67
2023/03/21 10:03:49;;;;;;;16.40;11.30;;;;;;;;;;5016946;28;20825;-66
2023/03/21 10:06:17;;;;;;;27.43;13.80;;;;;;;;;;5017152;28;20493;-67
2023/03/21 10:08:47;;;;;;;28.10;14.10;;;;;;;;;;5017017;28;20450;-66
2023/03/21 10:11:16;;;;;;;17.50;10.70;;;;;;;;;;5017112;28;20475;-67
2023/03/21 10:13:45;;;;;;;15.43;11.40;;;;;;;;;;5016569;28;20501;-67
2023/03/21 10:16:15;;;;;;;15.50;10.73;;;;;;;;;;5016957;28;20474;-68
2023/03/21 10:18:43;;;;;;;23.97;11.77;;;;;;;;;;5016502;28;20450;-67
2023/03/21 10:21:15;;;;;;;16.03;11.30;;;;;;;;;;5016450;28;20956;-67
2023/03/21 10:23:43;;;;;;;21.17;10.73;;;;;;;;;;5016446;28;20427;-66
2023/03/21 10:26:11;;;;;;;19.30;10.50;;;;;;;;;;5016183;28;20514;-66
2023/03/21 10:28:42;;;;;;;26.67;12.13;;;;;;;;;;5016946;28;20455;-67
2023/03/21 10:31:10;;;;;;;13.60;9.97;;;;;;;;;;5017031;28;20459;-67
2023/03/21 10:33:38;;;;;;;16.90;10.70;;;;;;;;;;5016880;28;20499;-67
2023/03/21 10:36:07;;;;;;;21.97;11.37;;;;;;;;;;5015918;28;20496;-66
2023/03/21 10:38:35;;;;;;;17.63;10.40;;;;;;;;;;5015983;28;20457;-66
2023/03/21 10:41:02;;;;;;;35.60;12.93;;;;;;;;;;5016745;28;20459;-68
2023/03/21 10:43:39;;;;;;;29.07;11.30;;;;;;;;;;5016083;28;20455;-66
2023/03/21 10:46:08;;;;;;;30.00;11.00;;;;;;;;;;5016679;28;20464;-67
2023/03/21 10:48:39;;;;;;;15.27;9.53;;;;;;;;;;5015984;28;20446;-66
2023/03/21 10:51:08;;;;;;;26.53;11.97;;;;;;;;;;5016529;28;20801;-66
2023/03/21 10:53:37;;;;;;;15.20;9.90;;;;;;;;;;5016769;28;20444;-67
2023/03/21 10:56:07;;;;;;;23.53;11.23;;;;;;;;;;5016123;28;20448;-69
2023/03/21 10:58:38;;;;;;;23.10;10.60;;;;;;;;;;5015813;28;20431;-66
2023/03/21 11:01:08;;;;;;;19.23;11.53;;;;;;;;;;5015976;28;20938;-66
2023/03/21 11:03:37;;;;;;;24.20;12.30;;;;;;;;;;5016375;28;20455;-66
2023/03/21 11:06:07;;;;;;;18.37;11.30;;;;;;;;;;5015586;28;20938;-66
2023/03/21 11:08:39;;;;;;;21.83;11.87;;;;;;;;;;5015830;28;20495;-66
2023/03/21 11:11:07;;;;;;;23.00;12.33;;;;;;;;;;5015628;28;20511;-67
2023/03/21 11:13:37;;;;;;;25.83;13.03;;;;;;;;;;5014659;28;20431;-66
2023/03/21 11:16:08;;;;;;;17.57;11.20;;;;;;;;;;5015666;28;20448;-66
2023/03/21 11:18:39;;;;;;;20.90;11.30;;;;;;;;;;5016160;28;20435;-66
2023/03/21 11:21:08;;;;;;;14.37;11.13;;;;;;;;;;5016062;28;20441;-67
2023/03/21 11:23:37;;;;;;;26.90;11.97;;;;;;;;;;5015623;28;20531;-69
2023/03/21 11:26:09;;;;;;;16.33;11.60;;;;;;;;;;5015397;28;20436;-66
2023/03/21 11:28:38;;;;;;;20.93;12.10;;;;;;;;;;5015600;28;20444;-66
2023/03/21 11:31:08;;;;;;;17.90;10.40;;;;;;;;;;5015430;28;20449;-68
2023/03/21 11:33:37;;;;;;;19.43;11.83;;;;;;;;;;5015374;28;20490;-67
2023/03/21 11:36:05;;;;;;;16.13;11.90;;;;;;;;;;5014920;28;20485;-66
2023/03/21 11:38:33;;;;;;;27.53;12.17;;;;;;;;;;5014997;28;20450;-66
2023/03/21 11:41:02;;;;;;;15.53;11.30;;;;;;;;;;5015084;28;20480;-66
2023/03/21 11:43:30;;;;;;;23.00;11.43;;;;;;;;;;5014871;28;20461;-67
2023/03/21 11:45:59;;;;;;;18.33;11.50;;;;;;;;;;5015163;28;20478;-66
2023/03/21 11:48:28;;;;;;;20.60;12.57;;;;;;;;;;5015553;28;20496;-66
2023/03/21 11:50:59;;;;;;;16.20;11.23;;;;;;;;;;5015002;28;20444;-66
2023/03/21 11:53:35;;;;;;;20.93;11.30;;;;;;;;;;5014925;28;20425;-66
2023/03/21 11:56:13;;;;;;;20.97;11.90;;;;;;;;;;5015070;28;20426;-66
2023/03/21 11:58:46;;;;;;;18.13;12.00;;;;;;;;;;5015553;28;20439;-67
2023/03/21 12:01:17;;;;;;;13.60;11.53;;;;;;;;;;5014894;28;20519;-66
2023/03/21 12:03:53;;;;;;;19.37;12.50;;;;;;;;;;5015136;28;20427;-67
2023/03/21 12:06:26;;;;;;;15.07;11.50;;;;;;;;;;5015039;28;20448;-67
2023/03/21 12:09:11;;;;;;;18.70;12.17;;;;;;;;;;5014573;28;20432;-67
2023/03/21 12:11:46;;;;;;;20.43;13.67;;;;;;;;;;5014461;28;20448;-66
2023/03/21 12:14:18;;;;;;;18.97;13.40;;;;;;;;;;5014784;28;20438;-66
2023/03/21 12:16:51;;;;;;;19.47;12.37;;;;;;;;;;5014942;28;20444;-67
2023/03/21 12:19:27;;;;;;;21.13;12.30;;;;;;;;;;5014833;28;20508;-68
2023/03/21 12:22:01;;;;;;;27.43;13.10;;;;;;;;;;5014408;28;20919;-67
2023/03/21 12:24:32;;;;;;;19.67;14.10;;;;;;;;;;5013776;28;20448;-66
2023/03/21 12:27:05;;;;;;;20.10;13.43;;;;;;;;;;5014214;28;20482;-66
2023/03/21 12:29:39;;;;;;;23.50;14.40;;;;;;;;;;5014099;28;20439;-66
2023/03/21 12:32:10;;;;;;;22.47;13.00;;;;;;;;;;5014187;28;20907;-67
2023/03/21 12:34:46;;;;;;;20.50;12.87;;;;;;;;;;5014167;28;20441;-66
2023/03/21 12:37:19;;;;;;;17.27;12.23;;;;;;;;;;5014097;28;20443;-66
2023/03/21 12:39:48;;;;;;;22.23;12.53;;;;;;;;;;5014425;28;20421;-68
2023/03/21 12:42:28;;;;;;;16.93;10.90;;;;;;;;;;5014215;28;20448;-68
2023/03/21 12:44:57;;;;;;;13.37;9.83;;;;;;;;;;5014256;28;20437;-68
2023/03/21 12:47:26;;;;;;;15.20;9.83;;;;;;;;;;5014117;28;20593;-67
2023/03/21 12:49:57;;;;;;;9.80;7.63;;;;;;;;;;5014190;28;20883;-67
2023/03/21 12:52:27;;;;;;;12.30;7.97;;;;;;;;;;5014313;28;20540;-66
2023/03/21 12:54:57;;;;;;;13.27;7.63;;;;;;;;;;5014709;28;20438;-67
2023/03/21 12:57:27;;;;;;;14.60;7.63;;;;;;;;;;5014038;28;20474;-66
2023/03/21 12:59:56;;;;;;;10.07;7.70;;;;;;;;;;5013480;28;20444;-66
2023/03/21 13:02:27;;;;;;;9.30;5.93;;;;;;;;;;5014226;28;20448;-66
2023/03/21 13:04:59;;;;;;;10.80;6.73;;;;;;;;;;5013852;28;20457;-68
2023/03/21 13:07:30;;;;;;;7.30;6.03;;;;;;;;;;5013542;28;20518;-67
2023/03/21 13:09:58;;;;;;;12.83;7.07;;;;;;;;;;5013852;28;20433;-67
2023/03/21 13:12:41;;;;;;;8.40;6.77;;;;;;;;;;5013570;28;21020;-66
2023/03/21 13:15:17;;;;;;;9.10;6.87;;;;;;;;;;5013800;28;20429;-67
2023/03/21 13:17:49;;;;;;;20.67;7.43;;;;;;;;;;5013923;28;20425;-67
2023/03/21 13:20:22;;;;;;;11.23;6.60;;;;;;;;;;5013942;28;20442;-67
2023/03/21 13:22:51;;;;;;;33.90;9.30;;;;;;;;;;5014113;28;20446;-66
2023/03/21 13:25:19;;;;;;;30.70;9.10;;;;;;;;;;5013324;28;20453;-66
2023/03/21 13:27:51;;;;;;;18.17;7.93;;;;;;;;;;5013751;28;20488;-66
2023/03/21 13:30:20;;;;;;;60.40;14.00;;;;;;;;;;5013667;28;20483;-66
2023/03/21 13:32:49;;;;;;;18.80;7.33;;;;;;;;;;5013540;28;20451;-67
2023/03/21 13:35:17;;;;;;;13.20;7.83;;;;;;;;;;5013381;28;20483;-67
2023/03/21 13:37:50;;;;;;;29.67;8.03;;;;;;;;;;5017880;28;20878;-66
2023/03/21 13:40:23;;;;;;;14.67;6.90;;;;;;;;;;5017840;28;20433;-69
2023/03/21 13:42:55;;;;;;;18.70;6.30;;;;;;;;;;5017967;28;20454;-66
2023/03/21 13:45:28;;;;;;;16.27;8.17;;;;;;;;;;5017318;28;20446;-67
2023/03/21 13:47:56;;;;;;;19.30;6.73;;;;;;;;;;5017136;28;20484;-66
2023/03/21 13:50:44;;;;;;;17.30;9.20;;;;;;;;;;5017388;28;20517;-67
2023/03/21 13:53:22;;;;;;;15.57;7.30;;;;;;;;;;5017582;28;20434;-66
2023/03/21 13:56:00;;;;;;;26.83;7.50;;;;;;;;;;5017179;28;20507;-66
2023/03/21 13:58:34;;;;;;;16.03;5.97;;;;;;;;;;5018087;28;20440;-71
2023/03/21 14:01:06;;;;;;;15.83;6.27;;;;;;;;;;5016751;28;20946;-69
2023/03/21 14:03:35;;;;;;;10.90;6.20;;;;;;;;;;5018038;28;20744;-69
2023/03/21 14:06:02;;;;;;;22.00;6.17;;;;;;;;;;5017109;28;20555;-69
2023/03/21 14:08:31;;;;;;;17.73;6.70;;;;;;;;;;5016715;28;21082;-69
2023/03/21 14:11:07;;;;;;;10.00;6.10;;;;;;;;;;5016625;28;20963;-69
2023/03/21 14:13:35;;;;;;;15.77;6.20;;;;;;;;;;5017210;28;20529;-68
2023/03/21 14:16:07;;;;;;;13.83;5.47;;;;;;;;;;5016412;28;20530;-69
2023/03/21 14:18:40;;;;;;;7.90;5.90;;;;;;;;;;5015059;28;20438;-69
2023/03/21 14:21:07;;;;;;;9.63;5.17;;;;;;;;;;5016778;28;20953;-68
2023/03/21 14:23:34;;;;;;;9.17;4.70;;;;;;;;;;5016877;28;20446;-69
2023/03/21 14:26:03;;;;;;;6.47;4.40;;;;;;;;;;5016657;28;20537;-69
2023/03/21 14:28:31;;;;;;;13.30;4.70;;;;;;;;;;5016491;28;20478;-69
2023/03/21 14:31:00;;;;;;;10.60;5.37;;;;;;;;;;5016219;28;20506;-69